Time;durP1;ratioP1;P1;durP2;ratioP2;P2;SDS_P1;SDS_P2;PMS_P1;PMS_P2;Temp;Humidity;BMP_temperature;BMP_pressure;BME280_temperature;BME280_humidity;BME280_pressure;Samples;Min_cycle;Max_cycle;Signal;HPM_P1;HPM_P2
2023/05/04 00:00:56;;;;;;;10.57;9.63;;;;;;;-145.94;48.50;77907.75;5114975;28;20272;-69
2023/05/04 00:03:23;;;;;;;17.17;9.57;;;;;;;-145.94;48.22;77887.34;5114975;28;20606;-69
2023/05/04 00:05:49;;;;;;;9.53;9.10;;;;;;;-145.94;48.39;77895.53;5114860;28;20208;-68
2023/05/04 00:08:16;;;;;;;10.03;9.33;;;;;;;-145.94;48.38;77905.72;5114866;28;20268;-68
2023/05/04 00:10:46;;;;;;;9.57;9.07;;;;;;;-145.94;48.45;77903.69;5114084;28;20189;-68
2023/05/04 00:13:12;;;;;;;9.53;9.07;;;;;;;-145.94;48.46;77899.59;5114757;28;20193;-69
2023/05/04 00:15:39;;;;;;;10.13;9.33;;;;;;;-145.94;48.59;77901.63;5114699;28;20766;-68
2023/05/04 00:18:06;;;;;;;8.70;8.33;;;;;;;-145.94;48.36;77909.78;5115270;28;20207;-68
2023/05/04 00:20:32;;;;;;;10.53;9.27;;;;;;;-145.94;48.71;77915.91;5114650;28;20188;-68
2023/05/04 00:22:59;;;;;;;9.60;8.90;;;;;;;-145.94;48.46;77909.78;5114602;28;20272;-68
2023/05/04 00:25:25;;;;;;;9.80;9.20;;;;;;;-145.94;48.80;77920.00;5114491;28;20596;-68
2023/05/04 00:27:51;;;;;;;9.77;9.23;;;;;;;-145.94;49.10;77928.16;5114409;28;20197;-68
2023/05/04 00:30:18;;;;;;;9.27;8.87;;;;;;;-145.94;48.77;77928.16;5114747;28;20196;-69
2023/05/04 00:32:45;;;;;;;8.73;8.30;;;;;;;-145.94;48.94;77924.06;5114594;28;20212;-69
2023/05/04 00:35:12;;;;;;;9.17;8.47;;;;;;;-145.94;49.43;77936.31;5096505;28;20242;-69
2023/05/04 00:37:38;;;;;;;10.50;9.77;;;;;;;-145.94;49.44;77930.19;5114250;28;20220;-68
2023/05/04 00:40:05;;;;;;;8.70;8.37;;;;;;;-145.94;49.71;77950.59;5114590;28;20272;-68
2023/05/04 00:42:32;;;;;;;9.87;9.10;;;;;;;-145.94;49.44;77942.44;5114275;28;20216;-68
2023/05/04 00:44:58;;;;;;;8.83;8.50;;;;;;;-145.94;49.78;77962.81;5095995;28;20772;-68
2023/05/04 00:47:25;;;;;;;10.10;9.53;;;;;;;-145.94;50.22;77960.78;5114750;28;20284;-68
2023/05/04 00:49:51;;;;;;;9.43;8.77;;;;;;;-145.94;50.19;77979.16;5114309;28;20238;-68
2023/05/04 00:52:19;;;;;;;14.00;8.90;;;;;;;-145.94;50.17;77971.00;5114413;28;20611;-68
2023/05/04 00:54:46;;;;;;;9.30;8.57;;;;;;;-145.94;50.63;77964.88;5114064;28;20720;-68
2023/05/04 00:57:14;;;;;;;18.00;9.43;;;;;;;-145.94;50.44;77964.88;5113961;28;20330;-68
2023/05/04 00:59:41;;;;;;;10.37;9.77;;;;;;;-145.94;50.35;77968.94;5114024;28;20659;-68
2023/05/04 01:02:07;;;;;;;9.57;8.87;;;;;;;-145.94;50.31;77964.88;5095709;28;20659;-68
2023/05/04 01:04:34;;;;;;;9.90;9.03;;;;;;;-145.94;50.35;77973.03;5113906;28;20245;-68
2023/05/04 01:07:06;;;;;;;10.33;9.73;;;;;;;-145.94;50.80;77960.78;5113802;28;20304;-68
2023/05/04 01:09:48;;;;;;;12.27;9.10;;;;;;;-145.94;50.53;77966.91;5114699;28;20513;-68
2023/05/04 01:13:08;;;;;;;10.80;9.20;;;;;;;-145.94;51.11;77983.22;5095599;28;20208;-68
2023/05/04 01:15:36;;;;;;;9.67;8.77;;;;;;;-145.94;51.13;77983.22;5052084;28;20200;-68
2023/05/04 01:18:02;;;;;;;9.80;9.17;;;;;;;-145.94;50.99;77987.31;5095499;28;20195;-68
2023/05/04 01:20:29;;;;;;;9.37;8.63;;;;;;;-145.94;51.30;77993.44;5113664;28;20267;-68
2023/05/04 01:22:56;;;;;;;10.73;9.70;;;;;;;-145.94;51.27;77999.53;5095476;28;20558;-68
2023/05/04 01:25:28;;;;;;;11.23;10.17;;;;;;;-145.94;51.48;77999.53;5113888;28;20272;-68
2023/05/04 01:28:05;;;;;;;9.73;8.67;;;;;;;-145.94;51.30;78003.63;5095340;28;20284;-68
2023/05/04 01:30:44;;;;;;;9.03;8.43;;;;;;;-145.94;51.55;77991.38;5095324;28;20670;-68
2023/05/04 01:33:11;;;;;;;9.80;9.20;;;;;;;-145.94;51.65;78001.59;5113884;28;20197;-69
2023/05/04 01:35:38;;;;;;;9.27;8.87;;;;;;;-145.94;51.48;78005.66;5095269;28;20243;-68
2023/05/04 01:38:04;;;;;;;10.43;9.53;;;;;;;-145.94;52.07;78011.78;5095523;28;20555;-69
2023/05/04 01:40:31;;;;;;;10.53;9.60;;;;;;;-145.94;52.17;78015.88;5113557;28;20217;-69
2023/05/04 01:42:57;;;;;;;11.10;10.00;;;;;;;-145.94;51.95;78015.88;5095305;28;20185;-69
2023/05/04 01:45:23;;;;;;;9.77;9.23;;;;;;;-145.94;52.32;78019.94;5095154;28;20202;-69
2023/05/04 01:47:50;;;;;;;9.37;8.67;;;;;;;-145.94;51.83;78013.81;5113468;28;20274;-69
2023/05/04 01:50:16;;;;;;;10.00;9.40;;;;;;;-145.94;52.23;78024.03;5113478;28;20265;-68
2023/05/04 01:52:43;;;;;;;10.63;9.93;;;;;;;-145.94;52.42;78017.91;5113368;28;20212;-68
2023/05/04 01:55:09;;;;;;;10.63;9.93;;;;;;;-145.94;52.55;78034.22;5113392;28;20188;-68
2023/05/04 01:57:36;;;;;;;9.57;8.90;;;;;;;-145.94;52.54;78038.31;5113311;28;20288;-68
2023/05/04 02:00:03;;;;;;;17.63;9.30;;;;;;;-145.94;53.01;78042.38;5095152;28;20200;-68
2023/05/04 02:02:40;;;;;;;9.37;8.77;;;;;;;-145.94;53.16;78048.50;5113386;28;20548;-68
2023/05/04 02:05:08;;;;;;;12.67;9.53;;;;;;;-145.94;53.04;78032.19;5095153;28;20224;-68
2023/05/04 02:07:34;;;;;;;10.80;9.67;;;;;;;-145.94;52.62;78038.31;5095015;28;20216;-69
2023/05/04 02:10:01;;;;;;;10.07;9.37;;;;;;;-145.94;52.90;78030.16;5113282;28;20185;-69
2023/05/04 02:12:27;;;;;;;11.17;9.97;;;;;;;-145.94;52.61;78036.25;5094950;28;20220;-68
2023/05/04 02:14:54;;;;;;;10.37;9.67;;;;;;;-145.94;53.04;78036.25;5113300;28;20242;-68
2023/05/04 02:17:21;;;;;;;10.63;10.00;;;;;;;-145.94;53.29;78044.41;5113149;28;20305;-68
2023/05/04 02:19:47;;;;;;;11.13;10.30;;;;;;;-145.94;53.59;78056.66;5094959;28;20194;-68
2023/05/04 02:22:13;;;;;;;9.60;8.90;;;;;;;-145.94;53.35;78050.53;5094934;28;20181;-68
2023/05/04 02:24:40;;;;;;;9.83;9.27;;;;;;;-145.94;53.58;78058.69;5113414;28;20246;-68
2023/05/04 02:27:06;;;;;;;10.40;9.80;;;;;;;-145.94;53.65;78056.66;5113265;28;20301;-68
2023/05/04 02:29:33;;;;;;;10.90;10.27;;;;;;;-145.94;53.34;78046.47;5094849;28;20189;-68
2023/05/04 02:32:00;;;;;;;10.10;9.17;;;;;;;-145.94;53.38;78060.75;5094826;28;20213;-68
2023/05/04 02:34:26;;;;;;;11.63;10.67;;;;;;;-145.94;53.59;78058.69;5098317;28;20189;-68
2023/05/04 02:36:53;;;;;;;10.93;9.90;;;;;;;-145.94;53.56;78072.97;5116651;28;20223;-68
2023/05/04 02:39:19;;;;;;;11.90;10.03;;;;;;;-145.94;53.90;78062.78;5116670;28;20275;-68
2023/05/04 02:41:45;;;;;;;10.13;9.57;;;;;;;-145.94;53.78;78064.81;5116610;28;20173;-69
2023/05/04 02:44:12;;;;;;;11.30;10.23;;;;;;;-145.94;53.59;78066.84;5116877;28;20603;-68
2023/05/04 02:46:38;;;;;;;10.27;9.77;;;;;;;-145.94;53.81;78060.75;5098196;28;20210;-68
2023/05/04 02:49:05;;;;;;;9.67;9.20;;;;;;;-145.94;53.51;78052.59;5116476;28;20195;-68
2023/05/04 02:51:31;;;;;;;10.70;9.43;;;;;;;-145.94;53.51;78054.63;5116378;28;20184;-68
2023/05/04 02:53:58;;;;;;;10.07;9.57;;;;;;;-145.94;53.33;78058.69;5116585;28;20195;-68
2023/05/04 02:56:24;;;;;;;11.47;10.50;;;;;;;-145.94;53.77;78060.75;5098002;28;20310;-68
2023/05/04 02:58:50;;;;;;;12.37;9.70;;;;;;;-145.94;53.60;78066.84;5098883;28;20299;-68
2023/05/04 03:01:17;;;;;;;9.20;8.63;;;;;;;-145.94;53.66;78070.94;5097981;28;20601;-68
2023/05/04 03:03:43;;;;;;;10.13;9.40;;;;;;;-145.94;53.91;78064.81;5097910;28;20186;-68
2023/05/04 03:06:10;;;;;;;9.77;9.00;;;;;;;-145.94;53.85;78072.97;5116065;28;20242;-68
2023/05/04 03:08:36;;;;;;;10.47;9.93;;;;;;;-145.94;53.89;78070.94;5097834;28;20559;-68
2023/05/04 03:11:03;;;;;;;12.73;10.00;;;;;;;-145.94;53.88;78066.84;5116062;28;20190;-68
2023/05/04 03:13:29;;;;;;;9.97;9.37;;;;;;;-145.94;54.34;78077.06;5116205;28;20205;-68
2023/05/04 03:15:57;;;;;;;15.93;9.80;;;;;;;-145.94;54.52;78083.19;5097659;28;20217;-68
2023/05/04 03:18:23;;;;;;;10.07;9.37;;;;;;;-145.94;54.61;78083.19;5097611;28;20190;-68
2023/05/04 03:20:50;;;;;;;10.03;9.17;;;;;;;-145.94;54.76;78083.19;5097491;28;20224;-68
2023/05/04 03:23:19;;;;;;;11.17;10.20;;;;;;;-145.94;54.71;78093.38;5097540;28;20197;-68
2023/05/04 03:25:46;;;;;;;10.90;10.23;;;;;;;-145.94;54.78;78083.19;5097415;28;20215;-68
2023/05/04 03:28:13;;;;;;;11.03;10.33;;;;;;;-145.94;54.77;78087.25;5097320;28;20235;-68
2023/05/04 03:30:40;;;;;;;9.87;9.27;;;;;;;-145.94;54.83;78075.03;5097724;28;20286;-68
2023/05/04 03:33:08;;;;;;;10.60;9.70;;;;;;;-145.94;55.02;78083.19;5097266;28;20288;-68
2023/05/04 03:35:34;;;;;;;10.43;9.33;;;;;;;-145.94;55.07;78085.22;5097177;28;20263;-68
2023/05/04 03:38:02;;;;;;;11.27;10.50;;;;;;;-145.94;55.17;78079.09;5097279;28;20691;-68
2023/05/04 03:40:28;;;;;;;9.97;9.20;;;;;;;-145.94;55.01;78083.19;5115752;28;20190;-68
2023/05/04 03:42:55;;;;;;;10.53;9.77;;;;;;;-145.94;55.39;78087.25;5115385;28;20220;-68
2023/05/04 03:45:22;;;;;;;9.53;9.07;;;;;;;-145.94;55.20;78093.38;5095849;28;20277;-67
2023/05/04 03:47:49;;;;;;;10.60;9.97;;;;;;;-145.94;55.31;78085.22;5097054;28;20197;-68
2023/05/04 03:50:16;;;;;;;9.83;9.30;;;;;;;-145.94;55.28;78085.22;5096954;28;20232;-68
2023/05/04 03:52:42;;;;;;;10.80;10.17;;;;;;;-145.94;55.31;78099.50;5115082;28;20237;-68
2023/05/04 03:55:10;;;;;;;11.10;10.30;;;;;;;-145.94;55.58;78095.41;5097748;28;20203;-68
2023/05/04 03:57:36;;;;;;;9.93;9.43;;;;;;;-145.94;55.47;78099.50;5115038;28;20223;-68
2023/05/04 04:00:04;;;;;;;10.73;10.07;;;;;;;-145.94;55.44;78099.50;5096931;28;20181;-68
2023/05/04 04:02:40;;;;;;;10.43;9.73;;;;;;;-145.94;55.31;78097.47;5114974;28;20182;-68
2023/05/04 04:05:08;;;;;;;10.67;9.60;;;;;;;-145.94;55.59;78097.47;5096672;28;20202;-68
2023/05/04 04:07:37;;;;;;;10.10;9.43;;;;;;;-145.94;55.56;78095.41;5096548;28;20205;-68
2023/05/04 04:10:04;;;;;;;10.30;9.33;;;;;;;-145.94;55.65;78101.53;5096587;28;20728;-68
2023/05/04 04:12:31;;;;;;;9.67;9.27;;;;;;;-145.94;55.62;78101.53;5114738;28;20251;-68
2023/05/04 04:14:58;;;;;;;10.53;9.57;;;;;;;-145.94;55.73;78103.56;5115023;28;20185;-68
2023/05/04 04:17:24;;;;;;;13.93;10.30;;;;;;;-145.94;55.65;78101.53;5114676;28;20817;-68
2023/05/04 04:19:51;;;;;;;10.77;10.13;;;;;;;-145.94;55.68;78105.63;5114630;28;20204;-68
2023/05/04 04:22:17;;;;;;;11.83;10.90;;;;;;;-145.94;55.78;78111.72;5114935;28;20536;-68
2023/05/04 04:24:43;;;;;;;12.80;11.60;;;;;;;-145.94;55.90;78105.63;5114586;28;20220;-68
2023/05/04 04:27:10;;;;;;;13.30;10.47;;;;;;;-145.94;56.09;78103.56;5114361;28;20305;-68
2023/05/04 04:29:38;;;;;;;12.70;9.93;;;;;;;-145.94;56.26;78113.78;5114561;28;20181;-69
2023/05/04 04:32:05;;;;;;;12.27;10.33;;;;;;;-145.94;56.56;78117.84;5114352;28;20280;-69
2023/05/04 04:34:31;;;;;;;10.93;10.30;;;;;;;-145.94;56.70;78119.91;5114628;28;20185;-69
2023/05/04 04:36:58;;;;;;;11.70;10.70;;;;;;;-145.94;56.51;78121.94;5114412;28;20746;-68
2023/05/04 04:39:24;;;;;;;11.60;10.53;;;;;;;-145.94;56.71;78117.84;5114377;28;20265;-69
2023/05/04 04:41:51;;;;;;;11.40;10.53;;;;;;;-145.94;56.74;78113.78;5114148;28;20647;-69
2023/05/04 04:44:17;;;;;;;16.60;11.70;;;;;;;-145.94;56.58;78111.72;5114243;28;20658;-69
2023/05/04 04:46:45;;;;;;;11.77;10.70;;;;;;;-145.94;56.59;78109.69;5114095;28;20236;-68
2023/05/04 04:49:11;;;;;;;12.50;11.13;;;;;;;-145.94;56.82;78113.78;5114168;28;20193;-68
2023/05/04 04:51:40;;;;;;;11.13;10.47;;;;;;;-145.94;56.82;78107.66;5114110;28;20205;-69
2023/05/04 04:54:06;;;;;;;13.03;10.33;;;;;;;-145.94;56.76;78113.78;5114015;28;20714;-69
2023/05/04 04:56:33;;;;;;;78.33;15.47;;;;;;;-145.94;57.01;78117.84;5113516;28;20243;-68
2023/05/04 04:58:59;;;;;;;16.53;10.63;;;;;;;-145.94;56.91;78113.78;5114656;28;20550;-69
2023/05/04 05:01:26;;;;;;;11.93;10.80;;;;;;;-145.94;56.99;78119.91;5114252;28;20212;-69
2023/05/04 05:03:52;;;;;;;11.00;10.30;;;;;;;-145.94;56.88;78109.69;5114196;28;20174;-69
2023/05/04 05:06:19;;;;;;;12.27;10.70;;;;;;;-145.94;57.01;78111.72;5114054;28;20301;-69
2023/05/04 05:08:45;;;;;;;11.50;10.43;;;;;;;-145.94;56.90;78101.53;5113836;28;20194;-69
2023/05/04 05:11:12;;;;;;;12.07;11.00;;;;;;;-145.94;57.28;78095.41;5114381;28;20268;-69
2023/05/04 05:13:38;;;;;;;11.80;10.70;;;;;;;-145.94;57.22;78081.13;5113696;28;20727;-69
2023/05/04 05:16:05;;;;;;;22.83;10.83;;;;;;;-145.94;57.14;78070.94;5113599;28;20296;-69
2023/05/04 05:18:31;;;;;;;11.77;10.77;;;;;;;-145.94;56.79;78056.66;5114043;28;20177;-69
2023/05/04 05:20:59;;;;;;;12.50;11.23;;;;;;;-145.94;56.97;78048.50;5113747;28;20271;-69
2023/05/04 05:23:26;;;;;;;12.47;11.37;;;;;;;-145.94;56.70;78052.59;5114169;28;20696;-69
2023/05/04 05:25:52;;;;;;;11.80;11.00;;;;;;;-145.94;56.77;78046.47;5113932;28;20297;-69
2023/05/04 05:28:19;;;;;;;11.73;10.67;;;;;;;-145.94;56.79;78046.47;5113555;28;20189;-69
2023/05/04 05:30:46;;;;;;;12.83;11.73;;;;;;;-145.94;56.62;78028.09;5113572;28;20187;-69
2023/05/04 05:33:13;;;;;;;19.90;10.90;;;;;;;-145.94;56.56;78015.88;5113702;28;20204;-69
2023/05/04 05:35:39;;;;;;;12.60;11.10;;;;;;;-145.94;56.42;78001.59;5113437;28;20569;-68
2023/05/04 05:38:06;;;;;;;17.90;11.20;;;;;;;-145.94;56.01;77993.44;5113558;28;20226;-69
2023/05/04 05:40:32;;;;;;;12.97;11.83;;;;;;;-145.94;55.60;77971.00;5113687;28;20187;-69
2023/05/04 05:42:59;;;;;;;15.00;11.80;;;;;;;-145.94;55.58;77962.81;5113958;28;20535;-69
2023/05/04 05:45:25;;;;;;;12.70;11.50;;;;;;;-145.94;55.58;77942.44;5113315;28;20225;-69
2023/05/04 05:47:52;;;;;;;11.97;10.93;;;;;;;-145.94;55.65;77930.19;5113370;28;20714;-69
2023/05/04 05:50:19;;;;;;;11.90;10.93;;;;;;;-145.94;54.87;77917.97;5113308;28;20195;-69
2023/05/04 05:52:45;;;;;;;13.70;11.23;;;;;;;-145.94;54.98;77901.63;5113601;28;20552;-69
2023/05/04 05:55:11;;;;;;;12.00;11.00;;;;;;;-145.94;54.63;77862.88;5113349;28;20188;-69
2023/05/04 05:57:38;;;;;;;12.50;11.20;;;;;;;-145.94;54.85;77852.69;5113372;28;20717;-69
2023/05/04 06:00:05;;;;;;;12.17;11.17;;;;;;;-145.94;54.05;77846.56;5113581;28;20655;-69
2023/05/04 06:02:37;;;;;;;11.20;10.40;;;;;;;-145.94;53.67;77838.41;5113291;28;20247;-69
2023/05/04 06:05:04;;;;;;;16.00;11.03;;;;;;;-145.94;53.87;77815.97;5113847;28;20270;-69
2023/05/04 06:07:31;;;;;;;11.77;10.13;;;;;;;-145.94;53.51;77797.63;5114385;28;20250;-69
2023/05/04 06:09:57;;;;;;;13.40;10.40;;;;;;;-145.94;52.64;77779.25;5117168;28;20271;-69
2023/05/04 06:12:23;;;;;;;11.37;10.57;;;;;;;-145.94;53.13;77771.09;5117294;28;20655;-69
2023/05/04 06:14:50;;;;;;;12.20;11.03;;;;;;;-145.94;52.45;77756.81;5117061;28;20712;-69
2023/05/04 06:17:17;;;;;;;13.90;11.20;;;;;;;-145.94;51.59;77754.78;5117030;28;20268;-69
2023/05/04 06:19:44;;;;;;;11.20;10.23;;;;;;;-145.94;51.61;77740.50;5117081;28;20647;-69
2023/05/04 06:22:11;;;;;;;12.50;9.73;;;;;;;-145.94;51.62;77738.47;5116873;28;20186;-69
2023/05/04 06:24:38;;;;;;;13.43;10.10;;;;;;;-145.94;52.02;77724.19;5116959;28;20181;-69
2023/05/04 06:27:04;;;;;;;13.93;10.47;;;;;;;-145.94;51.21;77707.88;5116738;28;20299;-69
2023/05/04 06:29:31;;;;;;;9.73;9.27;;;;;;;-145.94;51.15;77699.72;5116821;28;20196;-69
2023/05/04 06:31:57;;;;;;;10.63;10.03;;;;;;;-145.94;50.78;77695.63;5116793;28;20275;-69
2023/05/04 06:34:24;;;;;;;12.47;10.27;;;;;;;-145.94;50.66;77681.34;5117256;28;20207;-70
2023/05/04 06:36:50;;;;;;;11.20;10.33;;;;;;;-145.94;50.57;77671.16;5116676;28;20209;-69
2023/05/04 06:39:17;;;;;;;13.03;9.97;;;;;;;-145.94;50.64;77663.00;5116965;28;20224;-69
2023/05/04 06:41:43;;;;;;;12.43;10.10;;;;;;;-145.94;50.94;77650.75;5116919;28;20275;-69
2023/05/04 06:44:10;;;;;;;11.33;10.30;;;;;;;-145.94;51.12;77634.44;5116769;28;20189;-69
2023/05/04 06:46:36;;;;;;;13.00;10.90;;;;;;;-145.94;50.37;77620.16;5116702;28;20686;-69
2023/05/04 06:49:03;;;;;;;11.87;10.80;;;;;;;-145.94;50.26;77601.81;5116471;28;20197;-69
2023/05/04 06:51:30;;;;;;;11.03;10.27;;;;;;;-145.94;49.59;77585.50;5116702;28;20545;-69
2023/05/04 06:53:58;;;;;;;12.63;9.80;;;;;;;-145.94;50.25;77567.13;5116302;28;20205;-69
2023/05/04 06:56:25;;;;;;;10.83;9.93;;;;;;;-145.94;49.64;77536.53;5116257;28;20240;-69
2023/05/04 06:58:51;;;;;;;16.27;9.87;;;;;;;-145.94;49.17;77520.22;5116308;28;20276;-68
2023/05/04 07:01:18;;;;;;;11.93;11.00;;;;;;;-145.94;49.26;77501.88;5116458;28;20260;-69
2023/05/04 07:03:44;;;;;;;12.30;11.10;;;;;;;-145.94;49.15;77479.44;5116217;28;20540;-69
2023/05/04 07:06:11;;;;;;;16.67;10.63;;;;;;;-145.94;48.44;77467.19;5116335;28;20209;-69
2023/05/04 07:08:37;;;;;;;11.43;10.47;;;;;;;-145.94;47.97;77450.88;5116168;28;20184;-69
2023/05/04 07:11:04;;;;;;;15.00;10.20;;;;;;;-145.94;48.70;77420.28;5116122;28;20220;-69
2023/05/04 07:13:31;;;;;;;11.57;10.67;;;;;;;-145.94;47.44;77401.94;5115928;28;20201;-69
2023/05/04 07:15:57;;;;;;;12.80;10.37;;;;;;;-145.94;48.16;77389.69;5115910;28;20300;-69
2023/05/04 07:18:24;;;;;;;10.50;9.73;;;;;;;-145.94;47.73;77359.09;5115990;28;20180;-69
2023/05/04 07:20:50;;;;;;;14.83;10.93;;;;;;;-145.94;46.90;77330.56;5115853;28;20254;-69
2023/05/04 07:23:18;;;;;;;16.00;11.03;;;;;;;-145.94;45.96;77318.31;5115856;28;20231;-69
2023/05/04 07:25:44;;;;;;;13.00;9.87;;;;;;;-145.94;45.90;77304.03;5116190;28;20275;-69
2023/05/04 07:28:11;;;;;;;10.97;10.03;;;;;;;-145.94;45.23;77287.72;5115628;28;20603;-69
2023/05/04 07:30:37;;;;;;;12.27;11.03;;;;;;;-145.94;44.93;77267.34;5115641;28;20189;-69
2023/05/04 07:33:04;;;;;;;12.47;10.43;;;;;;;-145.94;45.32;77259.19;5115898;28;20738;-69
2023/05/04 07:35:30;;;;;;;14.10;10.10;;;;;;;-145.94;45.45;77248.97;5115521;28;20250;-69
2023/05/04 07:37:57;;;;;;;18.10;10.97;;;;;;;-145.94;44.83;77232.66;5115441;28;20185;-69
2023/05/04 07:40:24;;;;;;;11.97;10.90;;;;;;;-145.94;44.35;77224.50;5115450;28;20264;-69
2023/05/04 07:42:50;;;;;;;14.70;10.50;;;;;;;-145.94;44.87;77216.34;5115367;28;20678;-69
2023/05/04 07:45:17;;;;;;;10.90;9.70;;;;;;;-145.94;44.85;77198.00;5115640;28;20196;-69
2023/05/04 07:47:43;;;;;;;11.63;9.97;;;;;;;-145.94;45.25;77177.59;5115785;28;20205;-69
2023/05/04 07:50:10;;;;;;;10.97;9.87;;;;;;;-145.94;43.72;77157.22;5115304;28;20189;-69
2023/05/04 07:52:37;;;;;;;15.10;10.37;;;;;;;-145.94;43.34;77159.25;5115178;28;20272;-69
2023/05/04 07:55:04;;;;;;;10.00;9.33;;;;;;;-145.94;42.84;77144.97;5115407;28;20237;-69
2023/05/04 07:57:31;;;;;;;13.50;10.33;;;;;;;-145.94;43.17;77134.78;5115989;28;20280;-69
2023/05/04 07:59:57;;;;;;;19.50;10.13;;;;;;;-145.94;43.41;77130.69;5115096;28;20269;-69
2023/05/04 08:02:24;;;;;;;9.47;9.00;;;;;;;-145.94;44.25;77098.06;5115606;28;20181;-69
2023/05/04 08:04:50;;;;;;;12.20;9.93;;;;;;;-145.94;43.49;77085.84;5115358;28;20261;-69
2023/05/04 08:07:18;;;;;;;14.10;9.73;;;;;;;-145.94;43.26;77075.63;5114921;28;20292;-69
2023/05/04 08:09:44;;;;;;;10.47;9.87;;;;;;;-145.94;42.92;77045.03;5115204;28;20538;-69
2023/05/04 08:12:11;;;;;;;11.63;9.93;;;;;;;-145.94;42.55;77028.72;5114870;28;20264;-69
2023/05/04 08:14:39;;;;;;;10.93;9.90;;;;;;;-145.94;41.90;77006.31;5114730;28;20208;-69
2023/05/04 08:17:05;;;;;;;10.07;9.37;;;;;;;-145.94;43.09;76987.94;5114684;28;20212;-69
2023/05/04 08:19:32;;;;;;;10.50;9.50;;;;;;;-145.94;41.58;76979.78;5114721;28;20528;-69
2023/05/04 08:21:58;;;;;;;12.20;8.97;;;;;;;-145.94;41.88;76977.75;5114654;28;20184;-69
2023/05/04 08:24:25;;;;;;;9.13;8.83;;;;;;;-145.94;42.16;76961.44;5114623;28;20681;-69
2023/05/04 08:26:51;;;;;;;10.27;9.37;;;;;;;-145.94;42.26;76945.13;5114355;28;20234;-69
2023/05/04 08:29:35;;;;;;;9.93;9.27;;;;;;;-145.94;42.02;76924.72;5114504;28;20186;-69
2023/05/04 08:32:01;;;;;;;10.37;9.50;;;;;;;-145.94;41.20;76902.28;5114247;28;20185;-69
2023/05/04 08:34:28;;;;;;;9.73;8.83;;;;;;;-145.94;41.77;76890.06;5114383;28;20205;-69
2023/05/04 08:36:54;;;;;;;11.20;9.90;;;;;;;-145.94;41.04;76877.81;5114902;28;20259;-69
2023/05/04 08:39:20;;;;;;;9.90;9.07;;;;;;;-145.94;40.64;76865.59;5114405;28;20595;-69
2023/05/04 08:41:48;;;;;;;11.47;9.30;;;;;;;-145.94;39.78;76857.44;5114291;28;20196;-69
2023/05/04 08:44:16;;;;;;;10.43;9.73;;;;;;;-145.94;40.52;76843.16;5114263;28;20220;-69
2023/05/04 08:46:51;;;;;;;9.83;8.93;;;;;;;-145.94;40.36;76837.03;5114111;28;20212;-69
2023/05/04 08:49:21;;;;;;;13.73;9.07;;;;;;;-145.94;42.06;76826.84;5114534;28;20730;-69
2023/05/04 08:51:49;;;;;;;12.27;8.67;;;;;;;-145.94;41.17;76814.63;5114175;28;20256;-69
2023/05/04 08:54:17;;;;;;;15.17;9.33;;;;;;;-145.94;40.13;76792.19;5113947;28;20721;-69
2023/05/04 08:56:45;;;;;;;18.53;9.20;;;;;;;-145.94;40.54;76792.19;5113960;28;20574;-69
2023/05/04 08:59:22;;;;;;;14.50;8.30;;;;;;;-145.94;40.25;76779.94;5114023;28;20617;-69
2023/05/04 09:01:56;;;;;;;9.13;8.17;;;;;;;-145.94;40.80;76753.44;5114302;28;20189;-69
2023/05/04 09:04:23;;;;;;;14.33;9.40;;;;;;;-145.94;40.22;76739.16;5114439;28;20172;-69
2023/05/04 09:06:49;;;;;;;12.33;8.63;;;;;;;-145.94;39.70;76726.94;5114122;28;20633;-70
2023/05/04 09:09:16;;;;;;;9.07;8.47;;;;;;;-145.94;39.50;76706.53;5113740;28;20731;-70
2023/05/04 09:11:43;;;;;;;17.17;8.97;;;;;;;-145.94;39.54;76675.94;5113754;28;20608;-70
2023/05/04 09:14:10;;;;;;;9.60;9.20;;;;;;;-145.94;38.60;76665.75;5113682;28;20246;-70
2023/05/04 09:16:37;;;;;;;18.73;8.83;;;;;;;-145.94;39.12;76661.69;5113711;28;20211;-70
2023/05/04 09:19:16;;;;;;;10.13;9.23;;;;;;;-145.94;38.04;76653.53;5113981;28;20180;-70
2023/05/04 09:21:43;;;;;;;10.63;10.00;;;;;;;-145.94;38.56;76643.31;5113729;28;20181;-70
2023/05/04 09:24:11;;;;;;;8.30;7.87;;;;;;;-145.94;38.98;76635.16;5113637;28;20268;-70
2023/05/04 09:26:38;;;;;;;12.33;8.73;;;;;;;-145.94;38.20;76620.91;5113943;28;20628;-69
2023/05/04 09:29:14;;;;;;;10.57;9.67;;;;;;;-145.94;38.94;76588.28;5113966;28;20182;-69
2023/05/04 09:31:48;;;;;;;9.50;8.87;;;;;;;-145.94;37.86;76576.03;5113630;28;20169;-70
2023/05/04 09:34:14;;;;;;;9.07;8.23;;;;;;;-145.94;39.32;76551.56;5113820;28;20200;-69
2023/05/04 09:36:41;;;;;;;8.07;7.33;;;;;;;-145.94;37.27;76545.44;5113446;28;20209;-69
2023/05/04 09:39:12;;;;;;;9.17;8.57;;;;;;;-145.94;37.13;76518.94;5113479;28;20275;-69
2023/05/04 09:41:39;;;;;;;8.53;7.93;;;;;;;-145.94;37.72;76510.78;5114976;28;20189;-70
2023/05/04 09:44:16;;;;;;;9.10;7.57;;;;;;;-145.94;37.12;76494.47;5117579;28;20260;-69
2023/05/04 09:46:54;;;;;;;8.83;8.23;;;;;;;-145.94;37.72;76478.16;5117789;28;20236;-70
2023/05/04 09:49:34;;;;;;;6.80;6.60;;;;;;;-145.94;37.67;76447.56;5118080;28;20260;-70
2023/05/04 09:52:03;;;;;;;10.03;7.90;;;;;;;-145.94;36.77;76427.19;5117586;28;20248;-70
2023/05/04 09:54:33;;;;;;;10.30;6.97;;;;;;;-145.94;37.31;76402.72;5117225;28;20299;-70
2023/05/04 09:57:14;;;;;;;7.90;7.37;;;;;;;-145.94;36.42;76390.50;5117354;28;20201;-70
2023/05/04 09:59:41;;;;;;;10.60;7.83;;;;;;;-145.94;36.24;76386.41;5117776;28;20181;-70
2023/05/04 10:02:10;;;;;;;9.70;8.87;;;;;;;-145.94;36.10;76382.34;5117963;28;20185;-70
2023/05/04 10:04:53;;;;;;;8.30;7.77;;;;;;;-145.94;36.28;76353.78;5117706;28;20161;-70
2023/05/04 10:07:19;;;;;;;8.37;7.30;;;;;;;-145.94;35.38;76337.47;5117219;28;20241;-70
2023/05/04 10:09:47;;;;;;;7.23;6.77;;;;;;;-145.94;35.54;76331.34;5117154;28;20193;-70
2023/05/04 10:12:14;;;;;;;7.13;6.80;;;;;;;-145.94;35.25;76323.19;5117210;28;20185;-70
2023/05/04 10:14:41;;;;;;;11.30;7.60;;;;;;;-145.94;35.57;76317.09;5117657;28;20286;-69
2023/05/04 10:17:34;;;;;;;8.83;8.10;;;;;;;-145.94;35.57;76308.94;5117033;28;20209;-70
2023/05/04 10:20:08;;;;;;;9.00;7.50;;;;;;;-145.94;35.60;76290.59;5098854;28;20181;-70
2023/05/04 10:23:08;;;;;;;11.73;7.63;;;;;;;-145.94;35.16;76280.38;5117367;28;20204;-70
2023/05/04 10:25:59;;;;;;;8.00;7.67;;;;;;;-145.94;35.57;76257.97;5100656;28;20581;-70
2023/05/04 10:28:59;;;;;;;12.77;7.20;;;;;;;-145.94;34.83;76255.91;5116869;28;20722;-70
2023/05/04 10:31:36;;;;;;;7.13;6.83;;;;;;;-145.94;34.86;76239.59;5075457;28;20232;-70
2023/05/04 10:34:02;;;;;;;7.10;6.47;;;;;;;-145.94;34.91;76223.28;5117030;28;20193;-70
2023/05/04 10:36:40;;;;;;;5.57;5.13;;;;;;;-145.94;34.96;76198.81;5116805;28;20244;-70
2023/05/04 10:39:18;;;;;;;7.20;6.53;;;;;;;-145.94;35.59;76202.91;5117298;28;20205;-71
2023/05/04 10:42:03;;;;;;;7.37;6.63;;;;;;;-145.94;34.19;76174.38;5116681;28;20256;-70
2023/05/04 10:44:34;;;;;;;5.97;5.43;;;;;;;-145.94;35.39;76145.81;5116886;28;20534;-70
2023/05/04 10:47:04;;;;;;;5.73;5.40;;;;;;;-145.94;33.62;76111.16;5116495;28;20627;-70
2023/05/04 10:49:33;;;;;;;7.47;6.80;;;;;;;-145.94;32.54;76109.13;5116421;28;20608;-70
2023/05/04 10:52:09;;;;;;;6.80;6.27;;;;;;;-145.94;32.84;76131.56;5117026;28;20248;-70
2023/05/04 10:54:36;;;;;;;5.47;5.20;;;;;;;-145.94;32.54;76121.34;5116039;28;20710;-70
2023/05/04 10:57:05;;;;;;;6.33;5.80;;;;;;;-145.94;33.43;76105.03;5116238;28;20234;-70
2023/05/04 10:59:32;;;;;;;5.03;4.90;;;;;;;-145.94;33.35;76094.84;5116291;28;20196;-70
2023/05/04 11:02:02;;;;;;;4.43;4.30;;;;;;;-145.94;32.55;76062.22;5116556;28;20189;-70
2023/05/04 11:04:30;;;;;;;4.87;4.40;;;;;;;-145.94;31.03;76043.88;5116210;28;20165;-70
2023/05/04 11:07:01;;;;;;;5.60;4.80;;;;;;;-145.94;30.78;76023.50;5116115;28;20240;-70
2023/05/04 11:09:35;;;;;;;5.57;5.47;;;;;;;-145.94;30.32;76007.19;5116654;28;20273;-70
2023/05/04 11:12:01;;;;;;;5.20;5.10;;;;;;;-145.94;30.72;75988.84;5116685;28;20572;-70
2023/05/04 11:14:28;;;;;;;5.73;5.33;;;;;;;-145.94;30.96;76007.19;5116521;28;20243;-70